sensor_id;sensor_type;location;lat;lon;timestamp;temperature;humidity
74420;DHT22;62855;50.718;-2.460;2022-12-05T00:01:18;38.48;73.00
74420;DHT22;62855;50.718;-2.460;2022-12-05T00:04:07;38.48;73.00
74420;DHT22;62855;50.718;-2.460;2022-12-05T00:07:06;38.48;73.00
74420;DHT22;62855;50.718;-2.460;2022-12-05T00:10:06;38.48;73.00
74420;DHT22;62855;50.718;-2.460;2022-12-05T00:13:05;38.48;73.00
74420;DHT22;62855;50.718;-2.460;2022-12-05T00:16:06;38.48;73.00
74420;DHT22;62855;50.718;-2.460;2022-12-05T00:19:07;38.48;73.00
74420;DHT22;62855;50.718;-2.460;2022-12-05T00:22:05;38.48;73.00
74420;DHT22;62855;50.718;-2.460;2022-12-05T00:25:06;38.48;73.00
74420;DHT22;62855;50.718;-2.460;2022-12-05T00:28:05;38.48;74.00
74420;DHT22;62855;50.718;-2.460;2022-12-05T00:31:07;38.48;74.00
74420;DHT22;62855;50.718;-2.460;2022-12-05T00:34:06;38.48;74.00
74420;DHT22;62855;50.718;-2.460;2022-12-05T00:37:05;38.48;74.00
74420;DHT22;62855;50.718;-2.460;2022-12-05T00:40:06;38.48;74.00
74420;DHT22;62855;50.718;-2.460;2022-12-05T00:43:05;38.48;74.00
74420;DHT22;62855;50.718;-2.460;2022-12-05T00:46:07;38.48;74.00
74420;DHT22;62855;50.718;-2.460;2022-12-05T00:49:06;38.48;74.00
74420;DHT22;62855;50.718;-2.460;2022-12-05T00:52:05;38.48;74.00
74420;DHT22;62855;50.718;-2.460;2022-12-05T00:55:06;38.48;74.00
74420;DHT22;62855;50.718;-2.460;2022-12-05T00:58:06;38.30;74.00
74420;DHT22;62855;50.718;-2.460;2022-12-05T01:01:10;38.30;74.00
74420;DHT22;62855;50.718;-2.460;2022-12-05T01:05:06;38.30;74.00
74420;DHT22;62855;50.718;-2.460;2022-12-05T01:08:05;38.30;74.00
74420;DHT22;62855;50.718;-2.460;2022-12-05T01:11:07;38.30;74.00
74420;DHT22;62855;50.718;-2.460;2022-12-05T01:14:05;38.30;74.00
74420;DHT22;62855;50.718;-2.460;2022-12-05T01:17:05;38.30;74.00
74420;DHT22;62855;50.718;-2.460;2022-12-05T01:20:06;38.30;74.00
74420;DHT22;62855;50.718;-2.460;2022-12-05T01:23:06;38.30;74.00
74420;DHT22;62855;50.718;-2.460;2022-12-05T01:26:09;38.30;74.00
74420;DHT22;62855;50.718;-2.460;2022-12-05T01:29:05;38.30;74.00
74420;DHT22;62855;50.718;-2.460;2022-12-05T01:32:05;38.30;74.00
74420;DHT22;62855;50.718;-2.460;2022-12-05T01:35:05;38.30;74.00
74420;DHT22;62855;50.718;-2.460;2022-12-05T01:38:06;38.30;74.00
74420;DHT22;62855;50.718;-2.460;2022-12-05T01:41:07;38.30;74.00
74420;DHT22;62855;50.718;-2.460;2022-12-05T01:44:56;38.30;74.00
74420;DHT22;62855;50.718;-2.460;2022-12-05T01:47:06;38.30;74.00
74420;DHT22;62855;50.718;-2.460;2022-12-05T01:50:07;38.30;74.00
74420;DHT22;62855;50.718;-2.460;2022-12-05T01:53:06;38.30;74.00
74420;DHT22;62855;50.718;-2.460;2022-12-05T01:56:05;38.30;74.00
74420;DHT22;62855;50.718;-2.460;2022-12-05T01:59:09;38.30;74.00
74420;DHT22;62855;50.718;-2.460;2022-12-05T02:02:06;38.30;74.00
74420;DHT22;62855;50.718;-2.460;2022-12-05T02:05:09;38.30;74.00
74420;DHT22;62855;50.718;-2.460;2022-12-05T02:08:08;38.30;74.00
74420;DHT22;62855;50.718;-2.460;2022-12-05T02:11:05;38.30;74.00
74420;DHT22;62855;50.718;-2.460;2022-12-05T02:14:16;38.30;74.00
74420;DHT22;62855;50.718;-2.460;2022-12-05T02:17:11;38.30;74.00
74420;DHT22;62855;50.718;-2.460;2022-12-05T02:20:16;38.12;74.00
74420;DHT22;62855;50.718;-2.460;2022-12-05T02:23:29;38.12;74.00
74420;DHT22;62855;50.718;-2.460;2022-12-05T02:26:37;38.12;75.00
74420;DHT22;62855;50.718;-2.460;2022-12-05T02:29:25;38.12;75.00
74420;DHT22;62855;50.718;-2.460;2022-12-05T02:32:12;38.12;75.00
74420;DHT22;62855;50.718;-2.460;2022-12-05T02:35:11;38.12;75.00
74420;DHT22;62855;50.718;-2.460;2022-12-05T02:38:12;38.12;75.00
74420;DHT22;62855;50.718;-2.460;2022-12-05T02:41:11;38.12;75.00
74420;DHT22;62855;50.718;-2.460;2022-12-05T02:44:09;38.12;75.00
74420;DHT22;62855;50.718;-2.460;2022-12-05T02:47:07;38.12;75.00
74420;DHT22;62855;50.718;-2.460;2022-12-05T02:50:06;38.12;75.00
74420;DHT22;62855;50.718;-2.460;2022-12-05T02:53:08;38.12;75.00
74420;DHT22;62855;50.718;-2.460;2022-12-05T02:56:06;38.12;76.00
74420;DHT22;62855;50.718;-2.460;2022-12-05T02:59:06;38.12;76.00
74420;DHT22;62855;50.718;-2.460;2022-12-05T03:02:06;38.12;76.00
74420;DHT22;62855;50.718;-2.460;2022-12-05T03:05:14;38.12;76.00
74420;DHT22;62855;50.718;-2.460;2022-12-05T03:08:09;38.12;76.00
74420;DHT22;62855;50.718;-2.460;2022-12-05T03:11:07;38.12;76.00
74420;DHT22;62855;50.718;-2.460;2022-12-05T03:14:09;38.12;76.00
74420;DHT22;62855;50.718;-2.460;2022-12-05T03:17:11;38.12;76.00
74420;DHT22;62855;50.718;-2.460;2022-12-05T03:20:10;38.12;76.00
74420;DHT22;62855;50.718;-2.460;2022-12-05T03:23:08;38.12;77.00
74420;DHT22;62855;50.718;-2.460;2022-12-05T03:26:09;38.12;77.00
74420;DHT22;62855;50.718;-2.460;2022-12-05T03:29:16;38.12;77.00
74420;DHT22;62855;50.718;-2.460;2022-12-05T03:32:10;38.12;77.00
74420;DHT22;62855;50.718;-2.460;2022-12-05T03:35:10;38.12;77.00
74420;DHT22;62855;50.718;-2.460;2022-12-05T03:38:12;38.12;77.00
74420;DHT22;62855;50.718;-2.460;2022-12-05T03:41:13;38.12;77.00
74420;DHT22;62855;50.718;-2.460;2022-12-05T03:44:11;38.12;77.00
74420;DHT22;62855;50.718;-2.460;2022-12-05T03:47:09;38.12;77.00
74420;DHT22;62855;50.718;-2.460;2022-12-05T03:50:09;38.12;77.00
74420;DHT22;62855;50.718;-2.460;2022-12-05T03:53:09;38.12;77.00
74420;DHT22;62855;50.718;-2.460;2022-12-05T03:56:09;38.12;78.00
74420;DHT22;62855;50.718;-2.460;2022-12-05T03:59:09;38.12;78.00
74420;DHT22;62855;50.718;-2.460;2022-12-05T04:02:09;38.12;78.00
74420;DHT22;62855;50.718;-2.460;2022-12-05T04:05:10;38.12;78.00
74420;DHT22;62855;50.718;-2.460;2022-12-05T04:08:10;38.12;78.00
74420;DHT22;62855;50.718;-2.460;2022-12-05T04:11:12;38.12;78.00
74420;DHT22;62855;50.718;-2.460;2022-12-05T04:14:09;38.12;78.00
74420;DHT22;62855;50.718;-2.460;2022-12-05T04:17:08;38.12;78.00
74420;DHT22;62855;50.718;-2.460;2022-12-05T04:20:09;38.12;79.00
74420;DHT22;62855;50.718;-2.460;2022-12-05T04:23:06;38.12;79.00
74420;DHT22;62855;50.718;-2.460;2022-12-05T04:26:10;38.12;79.00
74420;DHT22;62855;50.718;-2.460;2022-12-05T04:29:11;38.12;79.00
74420;DHT22;62855;50.718;-2.460;2022-12-05T04:32:10;38.12;79.00
74420;DHT22;62855;50.718;-2.460;2022-12-05T04:35:11;38.12;79.00
74420;DHT22;62855;50.718;-2.460;2022-12-05T04:38:09;38.12;79.00
74420;DHT22;62855;50.718;-2.460;2022-12-05T04:41:08;38.12;80.00
74420;DHT22;62855;50.718;-2.460;2022-12-05T04:44:08;38.12;80.00
74420;DHT22;62855;50.718;-2.460;2022-12-05T04:47:07;38.12;80.00
74420;DHT22;62855;50.718;-2.460;2022-12-05T04:50:07;38.12;80.00
74420;DHT22;62855;50.718;-2.460;2022-12-05T04:53:07;38.12;80.00
74420;DHT22;62855;50.718;-2.460;2022-12-05T04:56:08;38.12;80.00
74420;DHT22;62855;50.718;-2.460;2022-12-05T04:59:06;38.12;80.00
74420;DHT22;62855;50.718;-2.460;2022-12-05T05:02:11;38.12;80.00
74420;DHT22;62855;50.718;-2.460;2022-12-05T05:05:07;38.12;80.00
74420;DHT22;62855;50.718;-2.460;2022-12-05T05:08:11;38.12;80.00
74420;DHT22;62855;50.718;-2.460;2022-12-05T05:11:12;38.12;80.00
74420;DHT22;62855;50.718;-2.460;2022-12-05T05:14:06;38.12;80.00
74420;DHT22;62855;50.718;-2.460;2022-12-05T05:17:06;38.12;81.00
74420;DHT22;62855;50.718;-2.460;2022-12-05T05:20:06;38.12;81.00
74420;DHT22;62855;50.718;-2.460;2022-12-05T05:23:05;38.12;81.00
74420;DHT22;62855;50.718;-2.460;2022-12-05T05:26:05;38.12;81.00
74420;DHT22;62855;50.718;-2.460;2022-12-05T05:29:06;38.12;81.00
74420;DHT22;62855;50.718;-2.460;2022-12-05T05:32:06;38.12;81.00
74420;DHT22;62855;50.718;-2.460;2022-12-05T05:35:05;38.12;81.00
74420;DHT22;62855;50.718;-2.460;2022-12-05T05:38:05;38.12;81.00
74420;DHT22;62855;50.718;-2.460;2022-12-05T05:41:10;38.12;81.00
74420;DHT22;62855;50.718;-2.460;2022-12-05T05:44:06;38.12;81.00
74420;DHT22;62855;50.718;-2.460;2022-12-05T05:47:06;38.12;81.00
74420;DHT22;62855;50.718;-2.460;2022-12-05T05:50:06;38.30;81.00
74420;DHT22;62855;50.718;-2.460;2022-12-05T05:53:05;38.30;82.00
74420;DHT22;62855;50.718;-2.460;2022-12-05T05:56:07;38.30;82.00
74420;DHT22;62855;50.718;-2.460;2022-12-05T05:59:06;38.30;82.00
74420;DHT22;62855;50.718;-2.460;2022-12-05T06:02:06;38.30;82.00
74420;DHT22;62855;50.718;-2.460;2022-12-05T06:05:06;38.30;82.00
74420;DHT22;62855;50.718;-2.460;2022-12-05T06:08:05;38.30;82.00
74420;DHT22;62855;50.718;-2.460;2022-12-05T06:11:09;38.30;82.00
74420;DHT22;62855;50.718;-2.460;2022-12-05T06:14:05;38.30;82.00
74420;DHT22;62855;50.718;-2.460;2022-12-05T06:17:05;38.30;82.00
74420;DHT22;62855;50.718;-2.460;2022-12-05T06:20:06;38.30;82.00
74420;DHT22;62855;50.718;-2.460;2022-12-05T06:23:06;38.30;82.00
74420;DHT22;62855;50.718;-2.460;2022-12-05T06:26:09;38.30;82.00
74420;DHT22;62855;50.718;-2.460;2022-12-05T06:29:06;38.30;82.00
74420;DHT22;62855;50.718;-2.460;2022-12-05T06:32:06;38.30;82.00
74420;DHT22;62855;50.718;-2.460;2022-12-05T06:35:05;38.30;82.00
74420;DHT22;62855;50.718;-2.460;2022-12-05T06:38:06;38.30;83.00
74420;DHT22;62855;50.718;-2.460;2022-12-05T06:41:09;38.48;83.00
74420;DHT22;62855;50.718;-2.460;2022-12-05T06:44:05;38.48;83.00
74420;DHT22;62855;50.718;-2.460;2022-12-05T06:47:05;38.48;83.00
74420;DHT22;62855;50.718;-2.460;2022-12-05T06:50:06;38.48;83.00
74420;DHT22;62855;50.718;-2.460;2022-12-05T06:53:06;38.48;83.00
74420;DHT22;62855;50.718;-2.460;2022-12-05T06:56:08;38.48;83.00
74420;DHT22;62855;50.718;-2.460;2022-12-05T06:59:05;38.48;83.00
74420;DHT22;62855;50.718;-2.460;2022-12-05T07:02:05;38.66;83.00
74420;DHT22;62855;50.718;-2.460;2022-12-05T07:05:05;38.66;83.00
74420;DHT22;62855;50.718;-2.460;2022-12-05T07:08:05;38.66;83.00
74420;DHT22;62855;50.718;-2.460;2022-12-05T07:11:06;38.66;83.00
74420;DHT22;62855;50.718;-2.460;2022-12-05T07:14:06;38.66;83.00
74420;DHT22;62855;50.718;-2.460;2022-12-05T07:17:05;38.66;83.00
74420;DHT22;62855;50.718;-2.460;2022-12-05T07:20:06;38.84;84.00
74420;DHT22;62855;50.718;-2.460;2022-12-05T07:23:06;38.84;84.00
74420;DHT22;62855;50.718;-2.460;2022-12-05T07:26:08;38.84;84.00
74420;DHT22;62855;50.718;-2.460;2022-12-05T07:29:05;38.84;84.00
74420;DHT22;62855;50.718;-2.460;2022-12-05T07:32:05;38.84;84.00
74420;DHT22;62855;50.718;-2.460;2022-12-05T07:35:06;38.84;84.00
74420;DHT22;62855;50.718;-2.460;2022-12-05T07:38:05;38.84;84.00
74420;DHT22;62855;50.718;-2.460;2022-12-05T07:41:09;38.84;84.00
74420;DHT22;62855;50.718;-2.460;2022-12-05T07:44:05;38.84;84.00
74420;DHT22;62855;50.718;-2.460;2022-12-05T07:47:05;39.02;84.00
74420;DHT22;62855;50.718;-2.460;2022-12-05T07:50:06;39.02;84.00
74420;DHT22;62855;50.718;-2.460;2022-12-05T07:53:06;39.02;84.00
74420;DHT22;62855;50.718;-2.460;2022-12-05T07:56:07;39.02;84.00
74420;DHT22;62855;50.718;-2.460;2022-12-05T07:59:05;39.02;84.00
74420;DHT22;62855;50.718;-2.460;2022-12-05T08:02:05;39.02;84.00
74420;DHT22;62855;50.718;-2.460;2022-12-05T08:05:05;39.02;84.00
74420;DHT22;62855;50.718;-2.460;2022-12-05T08:08:05;39.02;84.00
74420;DHT22;62855;50.718;-2.460;2022-12-05T08:11:08;39.02;84.00
74420;DHT22;62855;50.718;-2.460;2022-12-05T08:14:06;39.02;84.00
74420;DHT22;62855;50.718;-2.460;2022-12-05T08:17:05;39.02;84.00
74420;DHT22;62855;50.718;-2.460;2022-12-05T08:20:06;39.02;84.00
74420;DHT22;62855;50.718;-2.460;2022-12-05T08:23:05;39.20;84.00
74420;DHT22;62855;50.718;-2.460;2022-12-05T08:26:08;39.20;84.00
74420;DHT22;62855;50.718;-2.460;2022-12-05T08:29:08;39.20;84.00
74420;DHT22;62855;50.718;-2.460;2022-12-05T08:32:05;39.20;84.00
74420;DHT22;62855;50.718;-2.460;2022-12-05T08:35:06;39.38;84.00
74420;DHT22;62855;50.718;-2.460;2022-12-05T08:38:06;39.38;84.00
74420;DHT22;62855;50.718;-2.460;2022-12-05T08:41:07;39.56;84.00
74420;DHT22;62855;50.718;-2.460;2022-12-05T08:44:07;39.56;84.00
74420;DHT22;62855;50.718;-2.460;2022-12-05T08:47:05;39.74;84.00
74420;DHT22;62855;50.718;-2.460;2022-12-05T08:50:06;39.74;84.00
74420;DHT22;62855;50.718;-2.460;2022-12-05T08:53:06;39.74;84.00
74420;DHT22;62855;50.718;-2.460;2022-12-05T08:56:07;39.92;84.00
74420;DHT22;62855;50.718;-2.460;2022-12-05T08:59:06;39.92;84.00
74420;DHT22;62855;50.718;-2.460;2022-12-05T09:02:07;39.92;84.00
74420;DHT22;62855;50.718;-2.460;2022-12-05T09:05:05;39.92;84.00
74420;DHT22;62855;50.718;-2.460;2022-12-05T09:08:05;40.10;84.00
74420;DHT22;62855;50.718;-2.460;2022-12-05T09:11:10;40.10;83.00
74420;DHT22;62855;50.718;-2.460;2022-12-05T09:14:06;40.10;83.00
74420;DHT22;62855;50.718;-2.460;2022-12-05T09:17:05;40.10;83.00
74420;DHT22;62855;50.718;-2.460;2022-12-05T09:20:06;40.28;83.00
74420;DHT22;62855;50.718;-2.460;2022-12-05T09:23:05;40.28;83.00
74420;DHT22;62855;50.718;-2.460;2022-12-05T09:26:07;40.28;83.00
74420;DHT22;62855;50.718;-2.460;2022-12-05T09:29:05;40.28;83.00
74420;DHT22;62855;50.718;-2.460;2022-12-05T09:32:06;40.28;83.00
74420;DHT22;62855;50.718;-2.460;2022-12-05T09:35:05;40.46;82.00
74420;DHT22;62855;50.718;-2.460;2022-12-05T09:38:06;40.46;82.00
74420;DHT22;62855;50.718;-2.460;2022-12-05T09:41:13;40.46;82.00
74420;DHT22;62855;50.718;-2.460;2022-12-05T09:44:11;40.46;82.00
74420;DHT22;62855;50.718;-2.460;2022-12-05T09:47:10;40.64;82.00
74420;DHT22;62855;50.718;-2.460;2022-12-05T09:50:13;40.64;82.00
74420;DHT22;62855;50.718;-2.460;2022-12-05T09:53:10;40.64;82.00
74420;DHT22;62855;50.718;-2.460;2022-12-05T09:56:11;40.64;82.00
74420;DHT22;62855;50.718;-2.460;2022-12-05T09:59:08;40.64;82.00
74420;DHT22;62855;50.718;-2.460;2022-12-05T10:02:12;40.82;82.00
74420;DHT22;62855;50.718;-2.460;2022-12-05T10:05:09;40.82;82.00
74420;DHT22;62855;50.718;-2.460;2022-12-05T10:08:10;40.82;82.00
74420;DHT22;62855;50.718;-2.460;2022-12-05T10:11:08;40.82;82.00
74420;DHT22;62855;50.718;-2.460;2022-12-05T10:14:11;40.82;82.00
74420;DHT22;62855;50.718;-2.460;2022-12-05T10:17:12;40.82;81.00
74420;DHT22;62855;50.718;-2.460;2022-12-05T10:20:10;41.00;81.00
74420;DHT22;62855;50.718;-2.460;2022-12-05T10:23:09;41.00;81.00
74420;DHT22;62855;50.718;-2.460;2022-12-05T10:26:08;41.00;81.00
74420;DHT22;62855;50.718;-2.460;2022-12-05T10:29:17;41.00;81.00
74420;DHT22;62855;50.718;-2.460;2022-12-05T10:32:12;41.00;81.00
74420;DHT22;62855;50.718;-2.460;2022-12-05T10:35:17;41.00;81.00
74420;DHT22;62855;50.718;-2.460;2022-12-05T10:38:10;41.18;81.00
74420;DHT22;62855;50.718;-2.460;2022-12-05T10:41:09;41.18;81.00
74420;DHT22;62855;50.718;-2.460;2022-12-05T10:44:05;41.18;81.00
74420;DHT22;62855;50.718;-2.460;2022-12-05T10:47:06;41.36;81.00
74420;DHT22;62855;50.718;-2.460;2022-12-05T10:53:06;41.36;81.00
74420;DHT22;62855;50.718;-2.460;2022-12-05T10:59:06;41.54;81.00
74420;DHT22;62855;50.718;-2.460;2022-12-05T11:02:11;41.54;81.00
74420;DHT22;62855;50.718;-2.460;2022-12-05T11:05:07;41.54;81.00
74420;DHT22;62855;50.718;-2.460;2022-12-05T11:08:08;41.54;81.00
74420;DHT22;62855;50.718;-2.460;2022-12-05T11:11:07;41.72;81.00
74420;DHT22;62855;50.718;-2.460;2022-12-05T11:14:19;41.72;81.00
74420;DHT22;62855;50.718;-2.460;2022-12-05T11:17:09;41.72;81.00
74420;DHT22;62855;50.718;-2.460;2022-12-05T11:20:32;41.90;81.00
74420;DHT22;62855;50.718;-2.460;2022-12-05T11:23:22;42.08;81.00
74420;DHT22;62855;50.718;-2.460;2022-12-05T11:26:13;42.26;81.00
74420;DHT22;62855;50.718;-2.460;2022-12-05T11:29:10;42.26;81.00
74420;DHT22;62855;50.718;-2.460;2022-12-05T11:32:16;42.44;81.00
74420;DHT22;62855;50.718;-2.460;2022-12-05T11:35:15;42.62;81.00
74420;DHT22;62855;50.718;-2.460;2022-12-05T11:38:06;42.62;81.00
74420;DHT22;62855;50.718;-2.460;2022-12-05T11:41:18;42.80;81.00
74420;DHT22;62855;50.718;-2.460;2022-12-05T11:44:22;42.80;80.00
74420;DHT22;62855;50.718;-2.460;2022-12-05T11:47:15;42.98;80.00
74420;DHT22;62855;50.718;-2.460;2022-12-05T11:50:14;43.16;80.00
74420;DHT22;62855;50.718;-2.460;2022-12-05T11:53:16;43.16;80.00
74420;DHT22;62855;50.718;-2.460;2022-12-05T11:56:11;43.16;80.00
74420;DHT22;62855;50.718;-2.460;2022-12-05T11:59:26;43.34;80.00
74420;DHT22;62855;50.718;-2.460;2022-12-05T12:02:14;43.34;80.00
74420;DHT22;62855;50.718;-2.460;2022-12-05T12:05:13;43.34;80.00
74420;DHT22;62855;50.718;-2.460;2022-12-05T12:08:15;43.52;79.00
74420;DHT22;62855;50.718;-2.460;2022-12-05T12:11:12;43.70;79.00
74420;DHT22;62855;50.718;-2.460;2022-12-05T12:14:13;43.88;79.00
74420;DHT22;62855;50.718;-2.460;2022-12-05T12:17:15;43.88;79.00
74420;DHT22;62855;50.718;-2.460;2022-12-05T12:20:17;44.24;79.00
74420;DHT22;62855;50.718;-2.460;2022-12-05T12:23:19;44.60;72.00
74420;DHT22;62855;50.718;-2.460;2022-12-05T12:26:11;44.78;72.00
74420;DHT22;62855;50.718;-2.460;2022-12-05T12:29:13;44.78;71.00
74420;DHT22;62855;50.718;-2.460;2022-12-05T12:32:16;44.78;71.00
74420;DHT22;62855;50.718;-2.460;2022-12-05T12:35:26;44.60;71.00
74420;DHT22;62855;50.718;-2.460;2022-12-05T12:38:18;44.42;71.00
74420;DHT22;62855;50.718;-2.460;2022-12-05T12:41:13;44.42;71.00
74420;DHT22;62855;50.718;-2.460;2022-12-05T12:44:19;44.24;75.00
74420;DHT22;62855;50.718;-2.460;2022-12-05T12:47:08;44.24;76.00
74420;DHT22;62855;50.718;-2.460;2022-12-05T12:50:13;44.24;76.00
74420;DHT22;62855;50.718;-2.460;2022-12-05T12:53:20;44.24;76.00
74420;DHT22;62855;50.718;-2.460;2022-12-05T12:56:11;44.24;76.00
74420;DHT22;62855;50.718;-2.460;2022-12-05T12:59:19;44.24;76.00
74420;DHT22;62855;50.718;-2.460;2022-12-05T13:02:13;44.24;76.00
74420;DHT22;62855;50.718;-2.460;2022-12-05T13:05:15;44.24;76.00
74420;DHT22;62855;50.718;-2.460;2022-12-05T13:08:10;44.24;76.00
74420;DHT22;62855;50.718;-2.460;2022-12-05T13:11:08;44.24;76.00
74420;DHT22;62855;50.718;-2.460;2022-12-05T13:16:07;44.24;75.00
74420;DHT22;62855;50.718;-2.460;2022-12-05T13:21:09;44.24;74.00
74420;DHT22;62855;50.718;-2.460;2022-12-05T13:24:05;44.24;74.00
74420;DHT22;62855;50.718;-2.460;2022-12-05T13:27:12;44.24;74.00
74420;DHT22;62855;50.718;-2.460;2022-12-05T13:30:14;44.24;74.00
74420;DHT22;62855;50.718;-2.460;2022-12-05T13:33:08;44.24;74.00
74420;DHT22;62855;50.718;-2.460;2022-12-05T13:38:11;44.24;74.00
74420;DHT22;62855;50.718;-2.460;2022-12-05T13:41:06;44.24;74.00
74420;DHT22;62855;50.718;-2.460;2022-12-05T13:44:06;44.24;74.00
74420;DHT22;62855;50.718;-2.460;2022-12-05T13:44:06;44.24;74.00
74420;DHT22;62855;50.718;-2.460;2022-12-05T13:47:17;44.24;75.00
74420;DHT22;62855;50.718;-2.460;2022-12-05T13:50:09;44.24;74.00
74420;DHT22;62855;50.718;-2.460;2022-12-05T13:53:18;44.24;74.00
74420;DHT22;62855;50.718;-2.460;2022-12-05T13:57:08;44.24;74.00
74420;DHT22;62855;50.718;-2.460;2022-12-05T14:11:14;44.24;75.00
74420;DHT22;62855;50.718;-2.460;2022-12-05T14:14:06;44.24;75.00
74420;DHT22;62855;50.718;-2.460;2022-12-05T14:17:06;44.24;75.00
74420;DHT22;62855;50.718;-2.460;2022-12-05T14:20:18;44.24;75.00
74420;DHT22;62855;50.718;-2.460;2022-12-05T14:23:22;44.24;75.00
74420;DHT22;62855;50.718;-2.460;2022-12-05T14:26:17;44.24;76.00
74420;DHT22;62855;50.718;-2.460;2022-12-05T14:29:16;44.24;76.00
74420;DHT22;62855;50.718;-2.460;2022-12-05T14:32:15;44.24;76.00
74420;DHT22;62855;50.718;-2.460;2022-12-05T14:35:10;44.24;76.00
74420;DHT22;62855;50.718;-2.460;2022-12-05T14:38:06;44.24;76.00
74420;DHT22;62855;50.718;-2.460;2022-12-05T14:41:16;44.24;76.00
74420;DHT22;62855;50.718;-2.460;2022-12-05T14:44:10;44.24;76.00
74420;DHT22;62855;50.718;-2.460;2022-12-05T14:47:08;44.24;76.00
74420;DHT22;62855;50.718;-2.460;2022-12-05T14:53:29;44.06;76.00
74420;DHT22;62855;50.718;-2.460;2022-12-05T14:56:16;44.06;76.00
74420;DHT22;62855;50.718;-2.460;2022-12-05T14:59:12;44.06;77.00
74420;DHT22;62855;50.718;-2.460;2022-12-05T15:02:10;44.06;77.00
74420;DHT22;62855;50.718;-2.460;2022-12-05T15:05:13;44.06;77.00
74420;DHT22;62855;50.718;-2.460;2022-12-05T15:08:08;44.06;77.00
74420;DHT22;62855;50.718;-2.460;2022-12-05T15:11:05;43.88;77.00
74420;DHT22;62855;50.718;-2.460;2022-12-05T15:14:13;43.88;77.00
74420;DHT22;62855;50.718;-2.460;2022-12-05T15:15:12;43.88;77.00
74420;DHT22;62855;50.718;-2.460;2022-12-05T15:17:06;43.88;77.00
74420;DHT22;62855;50.718;-2.460;2022-12-05T15:18:10;43.88;77.00
74420;DHT22;62855;50.718;-2.460;2022-12-05T15:20:12;43.88;77.00
74420;DHT22;62855;50.718;-2.460;2022-12-05T15:22:10;43.88;77.00
74420;DHT22;62855;50.718;-2.460;2022-12-05T15:25:20;43.88;78.00
74420;DHT22;62855;50.718;-2.460;2022-12-05T15:26:11;43.88;78.00
74420;DHT22;62855;50.718;-2.460;2022-12-05T15:29:08;43.88;78.00
74420;DHT22;62855;50.718;-2.460;2022-12-05T15:29:08;43.88;78.00
74420;DHT22;62855;50.718;-2.460;2022-12-05T15:33:07;43.88;78.00
74420;DHT22;62855;50.718;-2.460;2022-12-05T15:40:09;43.70;78.00
74420;DHT22;62855;50.718;-2.460;2022-12-05T15:46:19;43.70;78.00
74420;DHT22;62855;50.718;-2.460;2022-12-05T15:49:16;43.70;79.00
74420;DHT22;62855;50.718;-2.460;2022-12-05T15:52:12;43.70;79.00
74420;DHT22;62855;50.718;-2.460;2022-12-05T15:55:11;43.70;79.00
74420;DHT22;62855;50.718;-2.460;2022-12-05T15:58:10;43.70;79.00
74420;DHT22;62855;50.718;-2.460;2022-12-05T16:01:10;43.70;79.00
74420;DHT22;62855;50.718;-2.460;2022-12-05T16:04:10;43.70;79.00
74420;DHT22;62855;50.718;-2.460;2022-12-05T16:07:09;43.52;79.00
74420;DHT22;62855;50.718;-2.460;2022-12-05T16:10:10;43.52;79.00
74420;DHT22;62855;50.718;-2.460;2022-12-05T16:13:10;43.52;79.00
74420;DHT22;62855;50.718;-2.460;2022-12-05T16:16:06;43.52;79.00
74420;DHT22;62855;50.718;-2.460;2022-12-05T16:19:12;43.52;79.00
74420;DHT22;62855;50.718;-2.460;2022-12-05T16:22:07;43.52;80.00
74420;DHT22;62855;50.718;-2.460;2022-12-05T16:25:11;43.34;80.00
74420;DHT22;62855;50.718;-2.460;2022-12-05T16:28:15;43.34;80.00
74420;DHT22;62855;50.718;-2.460;2022-12-05T16:31:12;43.34;80.00
74420;DHT22;62855;50.718;-2.460;2022-12-05T16:34:07;43.34;80.00
74420;DHT22;62855;50.718;-2.460;2022-12-05T16:42:15;43.16;80.00
74420;DHT22;62855;50.718;-2.460;2022-12-05T16:45:06;43.16;80.00
74420;DHT22;62855;50.718;-2.460;2022-12-05T16:48:14;43.16;80.00
74420;DHT22;62855;50.718;-2.460;2022-12-05T16:51:16;43.16;80.00
74420;DHT22;62855;50.718;-2.460;2022-12-05T16:54:06;43.16;80.00
74420;DHT22;62855;50.718;-2.460;2022-12-05T16:57:08;43.16;80.00
74420;DHT22;62855;50.718;-2.460;2022-12-05T17:00:06;43.16;80.00
74420;DHT22;62855;50.718;-2.460;2022-12-05T17:03:07;43.16;80.00
74420;DHT22;62855;50.718;-2.460;2022-12-05T17:06:06;43.16;80.00
74420;DHT22;62855;50.718;-2.460;2022-12-05T17:09:05;43.16;80.00
74420;DHT22;62855;50.718;-2.460;2022-12-05T17:12:10;43.16;80.00
74420;DHT22;62855;50.718;-2.460;2022-12-05T17:15:08;43.16;80.00
74420;DHT22;62855;50.718;-2.460;2022-12-05T17:18:06;43.16;80.00
74420;DHT22;62855;50.718;-2.460;2022-12-05T17:21:09;43.16;80.00
74420;DHT22;62855;50.718;-2.460;2022-12-05T17:24:06;43.16;80.00
74420;DHT22;62855;50.718;-2.460;2022-12-05T17:27:07;43.16;80.00
74420;DHT22;62855;50.718;-2.460;2022-12-05T17:30:07;43.16;80.00
74420;DHT22;62855;50.718;-2.460;2022-12-05T17:33:08;43.34;80.00
74420;DHT22;62855;50.718;-2.460;2022-12-05T17:36:06;43.34;80.00
74420;DHT22;62855;50.718;-2.460;2022-12-05T17:39:05;43.34;80.00
74420;DHT22;62855;50.718;-2.460;2022-12-05T17:42:06;43.34;80.00
74420;DHT22;62855;50.718;-2.460;2022-12-05T17:45:08;43.34;80.00
74420;DHT22;62855;50.718;-2.460;2022-12-05T17:48:05;43.52;80.00
74420;DHT22;62855;50.718;-2.460;2022-12-05T17:51:06;43.52;80.00
74420;DHT22;62855;50.718;-2.460;2022-12-05T17:54:06;43.52;80.00
74420;DHT22;62855;50.718;-2.460;2022-12-05T17:57:05;43.52;80.00
74420;DHT22;62855;50.718;-2.460;2022-12-05T18:00:06;43.52;80.00
74420;DHT22;62855;50.718;-2.460;2022-12-05T18:03:07;43.52;80.00
74420;DHT22;62855;50.718;-2.460;2022-12-05T18:06:08;43.52;80.00
74420;DHT22;62855;50.718;-2.460;2022-12-05T18:09:06;43.34;80.00
74420;DHT22;62855;50.718;-2.460;2022-12-05T18:12:06;43.34;80.00
74420;DHT22;62855;50.718;-2.460;2022-12-05T18:15:06;43.34;80.00
74420;DHT22;62855;50.718;-2.460;2022-12-05T18:18:05;43.34;80.00
74420;DHT22;62855;50.718;-2.460;2022-12-05T18:21:08;43.34;80.00
74420;DHT22;62855;50.718;-2.460;2022-12-05T18:24:06;43.16;80.00
74420;DHT22;62855;50.718;-2.460;2022-12-05T18:27:05;43.16;80.00
74420;DHT22;62855;50.718;-2.460;2022-12-05T18:30:06;43.16;80.00
74420;DHT22;62855;50.718;-2.460;2022-12-05T18:33:05;43.16;80.00
74420;DHT22;62855;50.718;-2.460;2022-12-05T18:36:09;43.16;80.00
74420;DHT22;62855;50.718;-2.460;2022-12-05T18:39:05;43.16;80.00
74420;DHT22;62855;50.718;-2.460;2022-12-05T18:42:05;43.16;80.00
74420;DHT22;62855;50.718;-2.460;2022-12-05T18:45:06;43.16;80.00
74420;DHT22;62855;50.718;-2.460;2022-12-05T18:48:05;43.16;80.00
74420;DHT22;62855;50.718;-2.460;2022-12-05T18:51:15;43.16;80.00
74420;DHT22;62855;50.718;-2.460;2022-12-05T18:54:06;43.16;80.00
74420;DHT22;62855;50.718;-2.460;2022-12-05T18:57:05;43.16;80.00
74420;DHT22;62855;50.718;-2.460;2022-12-05T19:00:06;43.16;80.00
74420;DHT22;62855;50.718;-2.460;2022-12-05T19:03:05;43.16;80.00